Marvin, South Dakota
Current Conditions -  °F | °C
As of 8:33 AM on Monday 26 Jan 2015 (Local Time) from KVVV Reporting Station
Clear Clear  
Wind Chill: 29°   Ceiling: Unl
Heat Index: 37°   Visibility: 10mi
Dew Point: 30°   Wind: 14mph
Humidity: 75%   Direction: 300°WNW
Pressure: 29.76"   Gusts: NA
Location:  45.26°N, 96.91°W
Report Text: KVVV 261433Z AUTO 30012KT 10SM CLR 03/M01 A2976 RMK AO2
Loading
Personal Weather Stations






























Interactive Weather Map New forecast layout! Learn more

10-Day Weather Forecast

Advertisements
Track Severe Weather on mobile